Time;durP1;ratioP1;P1;durP2;ratioP2;P2;SDS_P1;SDS_P2;PMS_P1;PMS_P2;Temp;Humidity;BMP_temperature;BMP_pressure;BME280_temperature;BME280_humidity;BME280_pressure;Samples;Min_cycle;Max_cycle;Signal;HPM_P1;HPM_P2
2022/07/29 00:00:44;;;;;;;2.10;1.90;;;23.40;60.40;;;;;;5095315;28;20103;-76
2022/07/29 00:03:10;;;;;;;2.95;1.80;;;23.30;60.60;;;;;;5093914;28;20024;-75
2022/07/29 00:05:37;;;;;;;2.80;1.88;;;23.30;60.80;;;;;;5094852;28;20028;-76
2022/07/29 00:08:03;;;;;;;2.05;1.73;;;23.30;60.80;;;;;;5094965;28;20055;-75
2022/07/29 00:10:29;;;;;;;2.65;1.67;;;23.30;61.10;;;;;;5093630;28;20421;-76
2022/07/29 00:12:54;;;;;;;2.72;2.10;;;23.20;61.40;;;;;;5095377;28;20028;-76
2022/07/29 00:15:20;;;;;;;4.18;2.08;;;23.10;62.20;;;;;;5094373;28;20031;-76
2022/07/29 00:17:45;;;;;;;4.72;2.10;;;23.10;61.90;;;;;;5127831;27;20028;-77
2022/07/29 00:20:11;;;;;;;4.63;2.25;;;23.00;62.10;;;;;;5094751;28;20028;-75
2022/07/29 00:22:38;;;;;;;3.33;2.20;;;23.00;62.10;;;;;;5094280;28;20028;-75
2022/07/29 00:25:04;;;;;;;3.60;1.73;;;23.00;62.30;;;;;;5094993;28;20096;-75
2022/07/29 00:27:29;;;;;;;2.42;1.83;;;23.00;62.70;;;;;;5094531;28;20032;-76
2022/07/29 00:29:55;;;;;;;2.45;2.15;;;23.00;63.20;;;;;;5094391;28;20132;-76
2022/07/29 00:32:21;;;;;;;4.40;1.92;;;23.00;62.80;;;;;;5094233;28;20024;-75
2022/07/29 00:37:31;;;;;;;3.22;2.20;;;22.90;63.20;;;;;;5094017;28;20486;-76
2022/07/29 00:39:56;;;;;;;3.95;2.42;;;22.90;63.20;;;;;;5094021;28;20066;-77
2022/07/29 00:42:22;;;;;;;2.47;2.00;;;22.90;63.20;;;;;;5093662;28;20020;-76
2022/07/29 00:44:48;;;;;;;2.20;1.80;;;22.90;63.40;;;;;;5127527;27;20385;-76
2022/07/29 00:47:13;;;;;;;2.70;1.70;;;22.90;63.60;;;;;;5094567;28;20435;-76
2022/07/29 00:49:41;;;;;;;3.00;2.03;;;22.80;64.10;;;;;;5093869;28;20123;-78
2022/07/29 00:52:08;;;;;;;3.10;2.00;;;22.80;64.20;;;;;;5094274;28;20107;-76
2022/07/29 00:54:34;;;;;;;4.00;1.80;;;22.80;64.10;;;;;;5093842;28;20053;-75
2022/07/29 00:57:00;;;;;;;2.78;2.05;;;22.80;64.20;;;;;;5093944;28;20028;-76
2022/07/29 00:59:27;;;;;;;2.55;1.90;;;22.70;64.60;;;;;;5093776;28;20085;-76
2022/07/29 01:01:53;;;;;;;2.78;2.15;;;22.70;64.80;;;;;;5094148;28;20031;-76
2022/07/29 01:04:20;;;;;;;2.78;2.10;;;22.60;65.20;;;;;;5094356;28;20111;-76
2022/07/29 01:06:47;;;;;;;2.65;2.10;;;22.60;65.60;;;;;;5093610;28;20032;-77
2022/07/29 01:09:13;;;;;;;4.00;2.10;;;22.60;65.70;;;;;;5093927;28;20063;-77
2022/07/29 01:11:39;;;;;;;2.80;2.00;;;22.60;66.30;;;;;;5093582;28;20024;-77
2022/07/29 01:14:07;;;;;;;2.53;1.98;;;22.50;66.70;;;;;;5093870;28;20036;-76
2022/07/29 01:16:37;;;;;;;4.90;2.78;;;22.50;67.10;;;;;;5093194;28;20024;-75
2022/07/29 01:19:41;;;;;;;2.72;2.28;;;22.50;67.20;;;;;;5094017;28;20027;-76
2022/07/29 01:22:26;;;;;;;2.47;1.80;;;22.40;67.40;;;;;;5093850;28;20024;-75
2022/07/29 01:25:00;;;;;;;2.42;2.08;;;22.40;67.80;;;;;;5093753;28;20052;-76
2022/07/29 01:27:59;;;;;;;3.08;2.15;;;22.40;68.00;;;;;;5093356;28;20103;-75
2022/07/29 01:30:26;;;;;;;2.25;2.00;;;22.30;68.00;;;;;;5091458;28;20500;-75
2022/07/29 01:32:58;;;;;;;2.58;2.10;;;22.30;67.90;;;;;;5093613;28;20027;-76
2022/07/29 01:35:28;;;;;;;2.75;2.33;;;22.30;68.30;;;;;;5093553;28;20054;-76
2022/07/29 01:38:13;;;;;;;5.15;2.33;;;22.30;68.60;;;;;;5093480;28;20035;-77
2022/07/29 01:40:53;;;;;;;4.53;1.90;;;22.20;68.70;;;;;;5093167;28;20103;-77
2022/07/29 01:43:26;;;;;;;4.20;2.33;;;22.20;68.60;;;;;;5093474;28;20523;-76
2022/07/29 01:46:07;;;;;;;3.13;2.22;;;22.20;68.60;;;;;;5093649;28;20028;-77
2022/07/29 01:48:44;;;;;;;3.22;2.28;;;22.20;68.70;;;;;;5091715;28;20358;-77
2022/07/29 01:51:31;;;;;;;5.13;2.10;;;22.20;68.80;;;;;;5092911;28;20384;-76
2022/07/29 01:54:25;;;;;;;3.50;1.92;;;22.20;68.70;;;;;;5092072;28;20016;-76
2022/07/29 01:56:53;;;;;;;3.40;2.13;;;22.20;69.40;;;;;;5090210;28;20032;-77
2022/07/29 01:59:21;;;;;;;2.28;1.95;;;22.10;69.60;;;;;;5092902;28;20035;-77
2022/07/29 02:01:49;;;;;;;4.13;2.42;;;22.10;70.00;;;;;;5092652;28;20601;-78
2022/07/29 02:04:17;;;;;;;3.80;2.58;;;22.00;70.30;;;;;;5092274;28;20036;-76
2022/07/29 02:06:44;;;;;;;3.03;1.90;;;22.10;70.30;;;;;;5092167;28;20027;-77
2022/07/29 02:09:12;;;;;;;2.60;1.92;;;22.00;70.40;;;;;;5092626;28;20028;-78
2022/07/29 02:11:40;;;;;;;2.63;2.25;;;22.00;70.70;;;;;;5092587;28;20032;-76
2022/07/29 02:14:06;;;;;;;2.40;2.20;;;22.00;70.80;;;;;;5092895;28;20032;-76
2022/07/29 02:16:35;;;;;;;4.25;2.47;;;22.00;71.30;;;;;;5092587;28;20043;-76
2022/07/29 02:19:02;;;;;;;3.80;2.58;;;21.90;71.50;;;;;;5093170;28;20468;-76
2022/07/29 02:21:31;;;;;;;2.70;1.98;;;21.90;71.40;;;;;;5092842;28;20020;-76
2022/07/29 02:24:00;;;;;;;2.88;2.30;;;21.90;71.20;;;;;;5092904;28;20020;-76
2022/07/29 02:26:27;;;;;;;5.15;2.00;;;21.90;71.50;;;;;;5092933;28;20077;-76
2022/07/29 02:28:57;;;;;;;3.47;2.60;;;21.90;71.50;;;;;;5092010;28;20400;-76
2022/07/29 02:31:26;;;;;;;3.65;2.40;;;21.80;71.70;;;;;;5092758;28;20553;-77
2022/07/29 02:33:53;;;;;;;2.30;1.92;;;21.70;72.20;;;;;;5092439;28;20104;-77
2022/07/29 02:36:22;;;;;;;2.50;1.80;;;21.70;72.50;;;;;;5091218;28;20384;-77
2022/07/29 02:38:53;;;;;;;3.80;2.50;;;21.70;72.40;;;;;;5092287;28;20033;-76
2022/07/29 02:41:39;;;;;;;3.47;2.20;;;21.70;72.60;;;;;;5091672;28;20028;-76
2022/07/29 02:44:16;;;;;;;2.58;2.05;;;21.80;72.80;;;;;;5092654;28;20396;-77
2022/07/29 02:46:53;;;;;;;2.80;2.50;;;21.70;73.10;;;;;;5092338;28;20032;-77
2022/07/29 02:49:48;;;;;;;5.03;2.22;;;21.70;73.30;;;;;;5092602;28;20063;-78
2022/07/29 02:52:27;;;;;;;4.50;2.80;;;21.70;74.00;;;;;;5092860;28;20377;-77
2022/07/29 02:55:12;;;;;;;3.58;2.50;;;21.60;74.20;;;;;;5092235;28;20021;-77
2022/07/29 02:57:44;;;;;;;2.65;2.38;;;21.60;74.10;;;;;;5092344;28;20035;-77
2022/07/29 03:00:11;;;;;;;3.25;2.60;;;21.60;74.60;;;;;;5092527;28;20093;-77
2022/07/29 03:02:42;;;;;;;3.70;2.47;;;21.60;74.50;;;;;;5092157;28;20115;-77
2022/07/29 03:05:12;;;;;;;2.60;2.30;;;21.50;75.10;;;;;;5095195;28;20024;-76
2022/07/29 03:07:39;;;;;;;3.85;2.83;;;21.60;75.30;;;;;;5096039;28;20036;-76
2022/07/29 03:10:08;;;;;;;4.95;2.50;;;21.50;75.10;;;;;;5096404;28;20138;-76
2022/07/29 03:12:33;;;;;;;3.25;2.60;;;21.50;75.30;;;;;;5095872;28;20474;-75
2022/07/29 03:15:01;;;;;;;3.00;2.40;;;21.50;75.60;;;;;;5096038;28;20024;-77
2022/07/29 03:17:27;;;;;;;3.38;2.55;;;21.50;76.00;;;;;;5096191;28;20028;-76
2022/07/29 03:19:54;;;;;;;3.58;2.20;;;21.50;76.40;;;;;;5095790;28;20069;-77
2022/07/29 03:22:20;;;;;;;4.03;2.78;;;21.40;76.70;;;;;;5096351;28;20422;-78
2022/07/29 03:24:46;;;;;;;2.95;2.60;;;21.40;76.50;;;;;;5095582;28;20024;-78
2022/07/29 03:27:11;;;;;;;4.85;2.80;;;21.40;76.60;;;;;;5095979;28;20076;-76
2022/07/29 03:29:37;;;;;;;3.08;2.33;;;21.40;77.10;;;;;;5095196;28;20063;-77
2022/07/29 03:32:05;;;;;;;3.38;2.85;;;21.40;77.80;;;;;;5096028;28;20089;-77
2022/07/29 03:34:30;;;;;;;3.42;2.63;;;21.40;77.80;;;;;;5095861;28;20028;-78
2022/07/29 03:36:56;;;;;;;2.65;2.35;;;21.40;77.60;;;;;;5095361;28;20480;-76
2022/07/29 03:39:25;;;;;;;2.75;2.20;;;21.40;78.20;;;;;;5095837;28;20089;-76
2022/07/29 03:41:55;;;;;;;3.88;2.88;;;21.40;77.50;;;;;;5095318;28;20028;-77
2022/07/29 03:44:22;;;;;;;4.45;2.78;;;21.40;77.80;;;;;;5095795;28;20028;-78
2022/07/29 03:46:50;;;;;;;2.38;2.17;;;21.40;77.70;;;;;;5095249;28;20537;-77
2022/07/29 03:49:18;;;;;;;4.35;2.65;;;21.40;77.60;;;;;;5092791;28;20036;-77
2022/07/29 03:51:44;;;;;;;4.25;2.55;;;21.40;77.40;;;;;;5090978;28;20036;-77
2022/07/29 03:54:11;;;;;;;4.38;2.53;;;21.40;77.90;;;;;;5095192;28;20099;-76
2022/07/29 03:56:46;;;;;;;5.75;2.50;;;21.40;77.90;;;;;;5095574;28;20024;-77
2022/07/29 03:59:12;;;;;;;5.05;2.40;;;21.40;78.00;;;;;;5094666;28;20063;-77
2022/07/29 04:01:39;;;;;;;4.43;2.58;;;21.30;77.80;;;;;;5095036;28;20032;-73
2022/07/29 04:04:05;;;;;;;4.47;2.80;;;21.40;78.20;;;;;;5095060;28;20020;-76
2022/07/29 04:06:41;;;;;;;3.83;2.80;;;21.40;78.20;;;;;;5094698;28;20020;-78
2022/07/29 04:09:08;;;;;;;4.47;3.30;;;21.40;78.10;;;;;;5094953;28;20499;-78
2022/07/29 04:11:34;;;;;;;3.78;2.70;;;21.40;78.00;;;;;;5095056;28;20035;-77
2022/07/29 04:13:59;;;;;;;3.45;2.63;;;21.40;78.20;;;;;;5094550;28;20021;-78
2022/07/29 04:16:25;;;;;;;3.78;2.72;;;21.40;78.20;;;;;;5094829;28;20039;-78
2022/07/29 04:18:50;;;;;;;3.58;2.55;;;21.40;78.10;;;;;;5094475;28;20028;-77
2022/07/29 04:21:16;;;;;;;3.40;2.92;;;21.50;78.40;;;;;;5094726;28;20032;-79
2022/07/29 04:23:44;;;;;;;3.92;3.03;;;21.50;78.30;;;;;;5093970;28;20130;-78
2022/07/29 04:26:10;;;;;;;3.05;2.75;;;21.60;78.20;;;;;;5094625;28;20035;-78
2022/07/29 04:28:38;;;;;;;5.38;2.75;;;21.70;77.10;;;;;;5094326;28;20055;-77
2022/07/29 04:31:03;;;;;;;4.88;2.67;;;21.80;77.00;;;;;;5094256;28;20024;-76
2022/07/29 04:33:29;;;;;;;3.42;2.60;;;21.90;76.80;;;;;;5094636;28;20024;-78
2022/07/29 04:35:54;;;;;;;2.88;2.55;;;22.00;75.20;;;;;;5094471;28;20105;-76
2022/07/29 04:38:20;;;;;;;2.95;2.45;;;22.10;74.80;;;;;;5094502;28;20038;-77
2022/07/29 04:40:46;;;;;;;3.42;2.70;;;22.20;74.00;;;;;;5094111;28;20061;-75
2022/07/29 04:43:11;;;;;;;5.28;2.90;;;22.30;72.80;;;;;;5094035;28;20097;-76
2022/07/29 04:45:37;;;;;;;2.35;2.00;;;22.40;72.20;;;;;;5094316;28;20110;-76
2022/07/29 04:48:03;;;;;;;3.38;2.42;;;22.60;72.60;;;;;;5093839;28;20039;-77
2022/07/29 04:50:28;;;;;;;5.28;3.00;;;22.60;72.00;;;;;;5093932;28;20035;-77
2022/07/29 04:52:54;;;;;;;3.17;2.60;;;22.70;71.70;;;;;;5092206;28;20111;-75
2022/07/29 04:55:19;;;;;;;3.22;2.80;;;22.90;71.70;;;;;;5093697;28;20081;-76
2022/07/29 04:57:45;;;;;;;2.50;2.30;;;23.00;71.10;;;;;;5093480;28;20039;-75
2022/07/29 05:00:11;;;;;;;3.53;2.20;;;23.10;70.50;;;;;;5094091;28;20020;-77
2022/07/29 05:02:37;;;;;;;3.10;2.60;;;23.20;69.40;;;;;;5094157;28;20029;-77
2022/07/29 05:05:03;;;;;;;2.80;2.20;;;23.40;69.60;;;;;;5093444;28;20035;-77
2022/07/29 05:07:28;;;;;;;3.42;2.40;;;23.60;69.00;;;;;;5094052;28;20077;-77
2022/07/29 05:09:56;;;;;;;4.78;2.50;;;23.70;68.30;;;;;;5093433;28;20038;-77
2022/07/29 05:12:23;;;;;;;2.83;2.20;;;23.80;67.60;;;;;;5093767;28;20051;-76
2022/07/29 05:14:49;;;;;;;3.55;2.45;;;24.00;67.40;;;;;;5092970;28;20059;-76
2022/07/29 05:17:15;;;;;;;2.33;2.08;;;24.20;66.40;;;;;;5092275;28;20460;-77
2022/07/29 05:19:40;;;;;;;3.55;2.38;;;24.50;66.00;;;;;;5093695;28;20027;-77
2022/07/29 05:22:06;;;;;;;3.72;2.40;;;24.60;65.30;;;;;;5093500;28;20107;-77
2022/07/29 05:24:31;;;;;;;3.90;2.47;;;24.90;65.30;;;;;;5093410;28;20020;-78
2022/07/29 05:26:57;;;;;;;2.75;2.25;;;25.10;64.30;;;;;;5092230;28;20020;-76
2022/07/29 05:29:23;;;;;;;3.97;2.13;;;25.30;63.40;;;;;;5093297;28;20055;-76
2022/07/29 05:31:48;;;;;;;4.70;2.20;;;25.50;62.30;;;;;;5092870;28;20089;-77
2022/07/29 05:34:14;;;;;;;3.17;2.42;;;25.90;61.70;;;;;;5078807;28;20032;-77
2022/07/29 05:36:39;;;;;;;3.25;2.85;;;26.20;60.00;;;;;;5073294;28;20100;-77
2022/07/29 05:39:05;;;;;;;3.92;2.47;;;26.40;59.50;;;;;;5072874;28;20047;-78
2022/07/29 05:41:33;;;;;;;3.78;2.22;;;26.80;58.50;;;;;;5073196;28;20047;-77
2022/07/29 05:43:59;;;;;;;2.80;2.22;;;27.20;58.30;;;;;;5072699;28;20115;-76
2022/07/29 05:46:25;;;;;;;4.72;2.40;;;27.70;57.00;;;;;;5073240;28;20532;-76
2022/07/29 05:48:50;;;;;;;6.78;2.63;;;27.90;56.20;;;;;;5071370;28;20037;-77
2022/07/29 05:51:16;;;;;;;3.67;2.85;;;28.30;55.80;;;;;;5071905;28;20036;-78
2022/07/29 05:53:42;;;;;;;5.57;3.10;;;28.80;54.30;;;;;;5073908;28;20028;-80
2022/07/29 05:56:07;;;;;;;4.32;2.88;;;29.30;53.70;;;;;;5092631;28;20349;-77
2022/07/29 05:58:33;;;;;;;4.15;2.35;;;29.80;52.50;;;;;;5092968;28;20455;-80
2022/07/29 06:01:00;;;;;;;2.58;2.30;;;30.30;51.80;;;;;;5091523;28;20521;-78
2022/07/29 06:03:26;;;;;;;3.40;2.53;;;31.10;49.60;;;;;;5091896;28;20376;-78
2022/07/29 06:05:51;;;;;;;6.53;2.42;;;31.90;47.60;;;;;;5092713;28;20034;-78
2022/07/29 06:08:17;;;;;;;2.90;2.60;;;32.80;46.30;;;;;;5093074;28;20032;-79
2022/07/29 06:10:43;;;;;;;3.70;2.30;;;33.30;44.70;;;;;;5092603;28;20031;-79
2022/07/29 06:13:09;;;;;;;3.22;2.65;;;33.20;43.60;;;;;;5092628;28;20027;-79
2022/07/29 06:15:35;;;;;;;3.42;2.53;;;32.70;44.00;;;;;;5093108;28;20035;-79
2022/07/29 06:18:00;;;;;;;6.72;2.95;;;32.40;44.60;;;;;;5092420;28;20084;-79
2022/07/29 06:20:29;;;;;;;3.20;2.40;;;31.90;44.90;;;;;;5092965;28;20115;-79
2022/07/29 06:22:54;;;;;;;3.88;2.72;;;31.60;45.80;;;;;;5092671;28;20103;-79
2022/07/29 06:25:20;;;;;;;4.75;2.75;;;31.40;46.50;;;;;;5092653;28;20158;-79
2022/07/29 06:27:46;;;;;;;2.83;2.53;;;31.10;46.20;;;;;;5092808;28;20036;-78
2022/07/29 06:30:12;;;;;;;4.07;2.70;;;30.90;46.90;;;;;;5090632;28;20048;-78
2022/07/29 06:32:37;;;;;;;4.03;2.78;;;30.50;48.30;;;;;;5092771;28;20111;-79
2022/07/29 06:35:03;;;;;;;3.33;2.67;;;30.40;48.50;;;;;;5092570;28;20108;-79
2022/07/29 06:37:29;;;;;;;3.78;2.78;;;30.20;48.40;;;;;;5093198;28;20032;-79
2022/07/29 06:42:43;;;;;;;3.08;2.40;;;29.80;49.20;;;;;;5096578;28;20395;-78
2022/07/29 06:45:10;;;;;;;4.95;3.15;;;29.50;49.90;;;;;;5096334;28;20051;-78
2022/07/29 06:47:36;;;;;;;3.63;2.55;;;29.30;50.40;;;;;;5096691;28;20032;-78
2022/07/29 06:50:02;;;;;;;3.10;2.50;;;29.10;50.90;;;;;;5096004;28;20388;-78
2022/07/29 06:52:28;;;;;;;3.42;2.97;;;28.80;51.70;;;;;;5096648;28;20035;-78
2022/07/29 06:54:54;;;;;;;2.97;2.58;;;28.70;52.20;;;;;;5096218;28;20035;-78
2022/07/29 06:57:21;;;;;;;3.95;2.92;;;28.50;52.50;;;;;;5096502;28;20028;-78
2022/07/29 06:59:47;;;;;;;2.92;2.42;;;28.30;52.70;;;;;;5096366;28;20115;-79
2022/07/29 07:02:12;;;;;;;4.05;2.83;;;28.20;53.00;;;;;;5095628;28;20115;-78
2022/07/29 07:04:38;;;;;;;3.90;2.72;;;28.00;53.60;;;;;;5096080;28;20024;-79
2022/07/29 07:07:04;;;;;;;4.38;2.88;;;27.90;53.80;;;;;;5095727;28;20028;-78
2022/07/29 07:09:29;;;;;;;2.75;2.38;;;27.80;54.70;;;;;;5096274;28;20122;-79
2022/07/29 07:11:55;;;;;;;3.35;2.85;;;27.60;55.20;;;;;;5095953;28;20024;-78
2022/07/29 07:14:20;;;;;;;2.92;2.20;;;27.50;54.80;;;;;;5096228;28;20043;-79
2022/07/29 07:16:46;;;;;;;6.50;2.63;;;27.50;55.60;;;;;;5094901;28;20020;-78
2022/07/29 07:19:11;;;;;;;3.10;2.63;;;27.40;55.30;;;;;;5095786;28;20309;-78
2022/07/29 07:21:37;;;;;;;3.00;2.58;;;27.30;54.70;;;;;;5095910;28;20115;-80
2022/07/29 07:24:03;;;;;;;3.25;2.20;;;27.20;55.30;;;;;;5095656;28;20164;-77
2022/07/29 07:26:29;;;;;;;3.60;2.42;;;27.20;55.80;;;;;;5096158;28;20032;-78
2022/07/29 07:28:54;;;;;;;2.30;2.10;;;27.20;55.60;;;;;;5095189;28;20051;-77
2022/07/29 07:31:20;;;;;;;4.07;2.60;;;27.10;56.40;;;;;;5095680;28;20048;-78
2022/07/29 07:33:46;;;;;;;4.18;3.15;;;27.10;56.30;;;;;;5095774;28;20061;-77
2022/07/29 07:36:11;;;;;;;3.35;2.65;;;27.10;56.20;;;;;;5095320;28;20102;-80
2022/07/29 07:38:37;;;;;;;3.63;2.85;;;27.10;56.50;;;;;;5095568;28;20085;-79
2022/07/29 07:41:03;;;;;;;2.95;2.60;;;27.10;57.00;;;;;;5095079;28;20562;-78
2022/07/29 07:43:29;;;;;;;3.83;2.42;;;27.10;56.70;;;;;;5095176;28;20067;-78
2022/07/29 07:45:54;;;;;;;2.50;2.22;;;27.10;56.70;;;;;;5094967;28;20085;-77
2022/07/29 07:48:20;;;;;;;2.50;2.30;;;27.20;57.80;;;;;;5095485;28;20073;-78
2022/07/29 07:50:46;;;;;;;4.75;2.55;;;27.40;56.70;;;;;;5095170;28;20032;-79
2022/07/29 07:53:11;;;;;;;4.00;2.75;;;27.50;56.50;;;;;;5094370;28;20070;-78
2022/07/29 07:55:43;;;;;;;2.90;2.60;;;27.90;55.60;;;;;;5095401;28;20371;-78
2022/07/29 07:58:09;;;;;;;3.35;2.17;;;28.20;55.10;;;;;;5094808;28;20028;-78
2022/07/29 08:00:35;;;;;;;2.72;2.28;;;28.80;55.80;;;;;;5094932;28;20380;-77
2022/07/29 08:03:01;;;;;;;4.72;2.42;;;29.40;53.30;;;;;;5094766;28;20059;-76
2022/07/29 08:05:27;;;;;;;2.70;2.40;;;30.30;52.70;;;;;;5095266;28;20068;-77
2022/07/29 08:07:53;;;;;;;3.35;2.40;;;32.10;49.30;;;;;;5094933;28;20052;-78
2022/07/29 08:13:06;;;;;;;3.28;2.42;;;34.70;44.70;;;;;;5094667;28;20388;-78
2022/07/29 08:15:32;;;;;;;4.38;2.42;;;35.90;41.50;;;;;;5094626;28;20024;-78
2022/07/29 08:17:58;;;;;;;3.15;2.38;;;36.80;40.00;;;;;;5094125;28;20464;-76
2022/07/29 08:20:24;;;;;;;2.90;2.42;;;37.50;39.40;;;;;;5094879;28;20032;-77
2022/07/29 08:22:50;;;;;;;2.38;1.98;;;38.20;37.70;;;;;;5094851;28;20023;-78
2022/07/29 08:25:19;;;;;;;2.90;2.10;;;38.90;36.80;;;;;;5094443;28;20032;-78
2022/07/29 08:27:45;;;;;;;2.13;1.85;;;39.30;37.00;;;;;;5094653;28;20080;-78
2022/07/29 08:30:11;;;;;;;3.25;2.00;;;39.80;36.40;;;;;;5094464;28;20446;-78
2022/07/29 08:32:37;;;;;;;3.25;2.22;;;40.10;34.80;;;;;;5094554;28;20376;-78
2022/07/29 08:35:03;;;;;;;2.60;1.90;;;40.30;34.60;;;;;;5093970;28;20020;-78
2022/07/29 08:37:28;;;;;;;2.97;2.20;;;40.70;35.10;;;;;;5094764;28;20024;-78
2022/07/29 08:39:54;;;;;;;3.15;2.20;;;41.00;35.00;;;;;;5094552;28;20032;-79
2022/07/29 08:42:20;;;;;;;3.67;1.85;;;41.20;33.30;;;;;;5094006;28;20412;-78
2022/07/29 08:44:45;;;;;;;3.42;2.25;;;41.20;34.20;;;;;;5094369;28;20404;-78
2022/07/29 08:47:14;;;;;;;3.45;2.00;;;41.30;34.20;;;;;;5093661;28;20495;-78
2022/07/29 08:49:40;;;;;;;3.53;1.83;;;41.40;33.90;;;;;;5094147;28;20065;-78
2022/07/29 08:52:06;;;;;;;2.25;2.00;;;41.20;33.60;;;;;;5093666;28;20028;-78
2022/07/29 08:54:32;;;;;;;3.33;1.70;;;40.70;33.80;;;;;;5094196;28;20026;-78
2022/07/29 08:56:59;;;;;;;2.38;2.17;;;39.60;34.00;;;;;;5094052;28;20451;-78
2022/07/29 08:59:27;;;;;;;2.17;1.95;;;38.90;36.50;;;;;;5094138;28;20024;-78
2022/07/29 09:01:53;;;;;;;3.17;2.10;;;39.00;35.00;;;;;;5093377;28;20052;-78
2022/07/29 09:04:20;;;;;;;3.10;2.30;;;38.00;36.60;;;;;;5093669;28;20539;-76
2022/07/29 09:06:49;;;;;;;2.75;2.15;;;36.90;36.30;;;;;;5093823;28;20028;-77
2022/07/29 09:09:15;;;;;;;2.10;1.90;;;36.30;37.50;;;;;;5093524;28;20462;-77
2022/07/29 09:11:42;;;;;;;2.65;2.22;;;35.70;38.40;;;;;;5093790;28;20024;-77
2022/07/29 09:14:08;;;;;;;3.42;2.25;;;35.00;38.90;;;;;;5093372;28;20145;-77
2022/07/29 09:16:48;;;;;;;3.38;2.22;;;34.50;40.00;;;;;;5093852;28;20035;-78
2022/07/29 09:19:30;;;;;;;2.17;2.00;;;33.90;41.10;;;;;;5093471;28;20039;-78
2022/07/29 09:21:58;;;;;;;1.83;1.73;;;33.60;41.70;;;;;;5093939;28;20379;-77
2022/07/29 09:24:38;;;;;;;2.35;1.70;;;33.40;41.80;;;;;;5093396;28;20376;-77
2022/07/29 09:27:17;;;;;;;2.50;1.70;;;33.20;42.30;;;;;;5093239;28;20024;-76
2022/07/29 09:29:43;;;;;;;3.03;2.00;;;33.10;42.40;;;;;;5093483;28;20066;-77
2022/07/29 09:32:10;;;;;;;2.20;2.00;;;33.10;43.10;;;;;;5092859;28;20387;-77
2022/07/29 09:34:37;;;;;;;3.13;2.55;;;33.10;43.60;;;;;;5093271;28;20476;-77
2022/07/29 09:37:04;;;;;;;3.67;2.15;;;32.70;42.70;;;;;;5093207;28;20089;-74
2022/07/29 09:39:45;;;;;;;2.88;2.10;;;32.70;43.70;;;;;;5093552;28;20381;-77
2022/07/29 09:42:11;;;;;;;3.75;2.55;;;32.60;43.80;;;;;;5092970;28;20032;-77
2022/07/29 09:44:45;;;;;;;3.22;2.45;;;32.50;43.60;;;;;;5093145;28;20024;-77
2022/07/29 09:47:11;;;;;;;3.20;2.28;;;32.40;43.70;;;;;;5092887;28;20034;-78
2022/07/29 09:49:52;;;;;;;2.55;2.17;;;32.30;44.50;;;;;;5092501;28;20107;-78
2022/07/29 09:52:18;;;;;;;3.85;2.00;;;32.40;44.70;;;;;;5092678;28;20028;-77
2022/07/29 09:54:44;;;;;;;4.45;2.47;;;32.40;44.10;;;;;;5093035;28;20107;-76
2022/07/29 09:57:26;;;;;;;3.08;2.00;;;32.30;43.60;;;;;;5092588;28;20024;-76
2022/07/29 10:00:00;;;;;;;2.65;2.30;;;32.30;44.30;;;;;;5093098;28;20085;-77
2022/07/29 10:02:31;;;;;;;2.20;2.00;;;32.20;43.60;;;;;;5092513;28;20073;-78
2022/07/29 10:04:56;;;;;;;2.50;2.30;;;32.00;44.80;;;;;;5092816;28;20108;-77
2022/07/29 10:07:22;;;;;;;2.78;2.25;;;31.90;45.50;;;;;;5092791;28;20119;-78
2022/07/29 10:09:56;;;;;;;2.78;2.15;;;31.90;45.60;;;;;;5091134;28;20456;-77
2022/07/29 10:12:23;;;;;;;3.47;2.63;;;31.70;45.70;;;;;;5092309;28;20115;-78
2022/07/29 10:14:50;;;;;;;3.42;2.28;;;31.70;45.70;;;;;;5092770;28;20028;-78
2022/07/29 10:17:17;;;;;;;2.95;2.25;;;31.70;45.80;;;;;;5092364;28;20036;-77
2022/07/29 10:19:44;;;;;;;5.60;2.58;;;31.70;46.50;;;;;;5092370;28;20501;-77
2022/07/29 10:22:10;;;;;;;3.80;2.42;;;31.60;45.80;;;;;;5092450;28;20020;-77
2022/07/29 10:24:38;;;;;;;4.00;2.70;;;31.70;46.50;;;;;;5092389;28;20036;-77
2022/07/29 10:27:05;;;;;;;5.40;2.40;;;31.60;46.20;;;;;;5092644;28;20016;-79
2022/07/29 10:29:31;;;;;;;3.72;2.30;;;31.80;47.30;;;;;;5092323;28;20101;-77
2022/07/29 10:32:10;;;;;;;3.17;2.38;;;31.80;46.50;;;;;;5092615;28;20436;-77
2022/07/29 10:34:51;;;;;;;2.88;2.58;;;31.90;46.80;;;;;;5092543;28;20039;-77
2022/07/29 10:37:54;;;;;;;4.20;2.42;;;32.00;46.50;;;;;;5091887;28;20031;-77
2022/07/29 10:43:35;;;;;;;3.03;2.22;;;31.80;45.70;;;;;;5092083;28;20030;-77
2022/07/29 10:46:02;;;;;;;2.85;2.22;;;31.70;45.40;;;;;;5092590;28;20028;-78
2022/07/29 10:48:28;;;;;;;3.10;2.33;;;31.60;45.90;;;;;;5091872;28;20387;-78
2022/07/29 10:51:03;;;;;;;3.83;1.75;;;31.60;45.80;;;;;;5092081;28;20211;-78
2022/07/29 10:53:48;;;;;;;2.75;2.10;;;31.60;46.30;;;;;;5091978;28;20031;-77
2022/07/29 10:56:23;;;;;;;3.45;2.30;;;31.60;46.20;;;;;;5092021;28;20030;-76
2022/07/29 10:59:17;;;;;;;2.42;2.22;;;31.60;45.60;;;;;;5092422;28;20107;-77
2022/07/29 11:01:43;;;;;;;4.65;2.78;;;31.50;45.70;;;;;;5092385;28;20024;-76
2022/07/29 11:04:09;;;;;;;2.95;2.10;;;31.40;46.10;;;;;;5091921;28;20047;-74
2022/07/29 11:07:06;;;;;;;2.92;2.05;;;31.40;46.40;;;;;;5092352;28;20056;-77
2022/07/29 11:09:32;;;;;;;2.13;1.92;;;31.40;46.30;;;;;;5091958;28;20089;-77
2022/07/29 11:11:57;;;;;;;2.40;1.85;;;31.30;46.40;;;;;;5092397;28;20399;-77
2022/07/29 11:14:58;;;;;;;2.13;1.85;;;31.30;46.30;;;;;;5092002;28;20047;-78
2022/07/29 11:17:24;;;;;;;2.42;1.92;;;31.20;46.50;;;;;;5091934;28;20021;-78
2022/07/29 11:19:51;;;;;;;2.47;2.17;;;31.30;46.60;;;;;;5092289;28;20039;-78
2022/07/29 11:22:37;;;;;;;2.22;2.00;;;31.30;46.60;;;;;;5091638;28;20103;-77
2022/07/29 11:25:16;;;;;;;2.85;1.98;;;31.20;46.80;;;;;;5093401;28;20024;-77
2022/07/29 11:27:44;;;;;;;4.30;2.20;;;31.20;47.30;;;;;;5095706;28;20031;-78
2022/07/29 11:30:11;;;;;;;3.50;2.75;;;31.20;47.20;;;;;;5095869;28;20052;-76
2022/07/29 11:32:39;;;;;;;2.42;2.10;;;31.10;46.50;;;;;;5095942;28;20065;-77
2022/07/29 11:35:20;;;;;;;4.28;2.20;;;31.00;46.90;;;;;;5095804;28;20028;-78
2022/07/29 11:38:06;;;;;;;2.88;2.03;;;30.80;46.60;;;;;;5096009;28;20028;-76
2022/07/29 11:40:32;;;;;;;3.45;2.25;;;30.70;46.80;;;;;;5095042;28;20036;-77
2022/07/29 11:42:57;;;;;;;2.20;2.00;;;30.60;47.40;;;;;;5094152;28;20031;-77
2022/07/29 11:45:28;;;;;;;2.78;2.15;;;30.70;47.30;;;;;;5094876;28;20028;-77
2022/07/29 11:47:57;;;;;;;3.60;2.30;;;30.70;47.80;;;;;;5095072;28;20029;-78
2022/07/29 11:50:28;;;;;;;3.30;2.28;;;30.80;47.30;;;;;;5095128;28;20433;-77
2022/07/29 11:52:53;;;;;;;2.30;2.05;;;30.80;47.20;;;;;;5095226;28;20077;-78
2022/07/29 11:55:24;;;;;;;4.75;2.22;;;30.90;47.50;;;;;;5095278;28;20035;-77
2022/07/29 11:57:52;;;;;;;;;;;30.90;47.40;;;;;;5095473;28;20477;-77
2022/07/29 12:00:33;;;;;;;2.78;1.92;;;31.00;47.10;;;;;;5094261;28;19911;-78
2022/07/29 12:03:03;;;;;;;3.35;2.13;;;31.10;46.30;;;;;;5095126;28;20050;-75
2022/07/29 12:05:35;;;;;;;3.63;2.22;;;31.10;46.80;;;;;;5094769;28;20120;-76
2022/07/29 12:08:25;;;;;;;2.00;1.85;;;31.00;46.20;;;;;;5095167;28;20028;-76
2022/07/29 12:10:51;;;;;;;2.80;2.20;;;31.00;46.40;;;;;;5095146;28;20024;-77
2022/07/29 12:13:19;;;;;;;2.45;2.10;;;30.90;46.40;;;;;;5094651;28;20032;-76
2022/07/29 12:16:00;;;;;;;2.30;2.03;;;30.80;46.80;;;;;;5095099;28;20123;-78
2022/07/29 12:18:26;;;;;;;3.47;2.30;;;30.80;46.80;;;;;;5094637;28;20032;-76
2022/07/29 12:21:00;;;;;;;2.47;2.22;;;30.70;46.80;;;;;;5094955;28;20471;-77
2022/07/29 12:23:25;;;;;;;4.05;2.35;;;30.70;47.00;;;;;;5094549;28;20032;-77
2022/07/29 12:25:51;;;;;;;3.58;2.33;;;30.80;47.30;;;;;;5094370;28;20020;-77
2022/07/29 12:28:18;;;;;;;2.83;2.28;;;30.80;47.20;;;;;;5094344;28;20063;-76
2022/07/29 12:30:51;;;;;;;3.45;2.03;;;30.80;47.60;;;;;;5094195;28;20517;-77
2022/07/29 12:33:20;;;;;;;2.65;2.45;;;30.70;47.50;;;;;;5094358;28;20456;-77
2022/07/29 12:35:58;;;;;;;3.88;2.70;;;30.70;47.50;;;;;;5094119;28;20118;-78
2022/07/29 12:38:24;;;;;;;3.08;2.15;;;30.70;47.60;;;;;;5093648;28;20071;-77
2022/07/29 12:40:50;;;;;;;2.63;2.30;;;30.70;47.40;;;;;;5094672;28;20024;-77
2022/07/29 12:43:20;;;;;;;3.58;2.15;;;30.70;47.10;;;;;;5094215;28;20024;-76
2022/07/29 12:45:49;;;;;;;3.20;2.33;;;30.70;47.90;;;;;;5094524;28;20047;-77
2022/07/29 12:48:16;;;;;;;2.17;1.92;;;30.70;47.90;;;;;;5094307;28;20043;-76
2022/07/29 12:50:55;;;;;;;2.33;1.90;;;30.70;47.50;;;;;;5094520;28;20028;-76
2022/07/29 12:53:21;;;;;;;2.08;1.88;;;30.70;47.90;;;;;;5093641;28;20503;-77
2022/07/29 12:55:51;;;;;;;3.40;2.10;;;30.70;48.00;;;;;;5094081;28;20055;-77
2022/07/29 12:58:36;;;;;;;2.67;2.22;;;30.60;47.90;;;;;;5094245;28;20073;-73
2022/07/29 13:01:13;;;;;;;2.22;1.65;;;30.60;48.20;;;;;;5094201;28;20388;-76
2022/07/29 13:03:42;;;;;;;3.47;2.10;;;30.50;48.00;;;;;;5093585;28;20031;-77
2022/07/29 13:06:30;;;;;;;2.97;2.22;;;30.50;48.70;;;;;;5094089;28;20020;-77
2022/07/29 13:09:13;;;;;;;5.38;1.98;;;30.40;48.50;;;;;;5094257;28;20039;-78